JST276 YSSY-YMML
Flight info
| Callsign | JST276 |
|---|---|
| Flight time | 1h 8m |
| Altitude | 36000 |
| Route | WOL H65 LEECE Q29 ML |
| Aircraft | A320/M-SDE3FGHIRWY/LB1 |
Departure
| Time | 2026-05-05 07:37 |
|---|---|
| Airport | Sydney Kingsford Smith International Airport (YSSY) |
Arrival
| Time | 2026-05-05 08:45 |
|---|---|
| Airport | Melbourne Airport (YMML) |
| Time | Latitude | Longitude | Altitude | Speed | Heading |
|---|---|---|---|---|---|
| 2026-05-05 07:05 | -33.93488 | 151.17790 | 31 ft | 0 kts | 279° |
| 2026-05-05 07:24 | -33.93491 | 151.17815 | 30 ft | 4 kts | 271° |
| 2026-05-05 07:25 | -33.93487 | 151.17843 | 30 ft | 4 kts | 220° |
| 2026-05-05 07:25 | -33.93479 | 151.17849 | 30 ft | 0 kts | 191° |
| 2026-05-05 07:29 | -33.93481 | 151.17848 | 30 ft | 1 kts | 191° |
| 2026-05-05 07:29 | -33.93497 | 151.17845 | 30 ft | 3 kts | 191° |
| 2026-05-05 07:29 | -33.93540 | 151.17835 | 30 ft | 8 kts | 191° |
| 2026-05-05 07:30 | -33.93605 | 151.17821 | 30 ft | 11 kts | 189° |
| 2026-05-05 07:30 | -33.93784 | 151.17784 | 23 ft | 9 kts | 189° |
| 2026-05-05 07:30 | -33.93787 | 151.17784 | 23 ft | 0 kts | 189° |
| 2026-05-05 07:31 | -33.93791 | 151.17783 | 23 ft | 3 kts | 189° |
| 2026-05-05 07:31 | -33.93835 | 151.17767 | 21 ft | 10 kts | 214° |
| 2026-05-05 07:31 | -33.93858 | 151.17721 | 19 ft | 0 kts | 251° |
| 2026-05-05 07:32 | -33.93861 | 151.17708 | 19 ft | 5 kts | 251° |
| 2026-05-05 07:32 | -33.93872 | 151.17644 | 18 ft | 9 kts | 271° |
| 2026-05-05 07:32 | -33.93827 | 151.17591 | 18 ft | 11 kts | 347° |
| 2026-05-05 07:32 | -33.93735 | 151.17567 | 18 ft | 16 kts | 348° |
| 2026-05-05 07:33 | -33.93623 | 151.17538 | 17 ft | 18 kts | 347° |
| 2026-05-05 07:33 | -33.93497 | 151.17504 | 20 ft | 18 kts | 350° |
| 2026-05-05 07:33 | -33.93370 | 151.17497 | 21 ft | 18 kts | 351° |
| 2026-05-05 07:33 | -33.93237 | 151.17466 | 21 ft | 21 kts | 347° |
| 2026-05-05 07:34 | -33.93098 | 151.17429 | 23 ft | 20 kts | 347° |
| 2026-05-05 07:34 | -33.92978 | 151.17379 | 23 ft | 18 kts | 310° |
| 2026-05-05 07:34 | -33.92959 | 151.17313 | 20 ft | 0 kts | 279° |
| 2026-05-05 07:35 | -33.92957 | 151.17300 | 20 ft | 3 kts | 279° |
| 2026-05-05 07:35 | -33.92953 | 151.17242 | 20 ft | 9 kts | 264° |
| 2026-05-05 07:35 | -33.93000 | 151.17181 | 20 ft | 12 kts | 191° |
| 2026-05-05 07:35 | -33.93050 | 151.17189 | 19 ft | 0 kts | 168° |
| 2026-05-05 07:36 | -33.93079 | 151.17197 | 20 ft | 23 kts | 168° |
| 2026-05-05 07:36 | -33.93522 | 151.17313 | 17 ft | 106 kts | 168° |
| 2026-05-05 07:36 | -33.94475 | 151.17569 | 41 ft | 167 kts | 166° |
| 2026-05-05 07:37 | -33.95604 | 151.17850 | 762 ft | 166 kts | 170° |
| 2026-05-05 07:37 | -33.96741 | 151.17969 | 1394 ft | 164 kts | 181° |
| 2026-05-05 07:37 | -33.97893 | 151.17903 | 1874 ft | 171 kts | 183° |
| 2026-05-05 07:37 | -33.99161 | 151.17806 | 2114 ft | 194 kts | 184° |
| 2026-05-05 07:38 | -34.00593 | 151.17698 | 2363 ft | 219 kts | 184° |
| 2026-05-05 07:38 | -34.02187 | 151.17595 | 2787 ft | 241 kts | 181° |
| 2026-05-05 07:38 | -34.03878 | 151.17919 | 3526 ft | 252 kts | 167° |
| 2026-05-05 07:38 | -34.05587 | 151.18469 | 4368 ft | 257 kts | 167° |
| 2026-05-05 07:39 | -34.07329 | 151.19045 | 5221 ft | 262 kts | 167° |
| 2026-05-05 07:39 | -34.09131 | 151.19292 | 6004 ft | 264 kts | 188° |
| 2026-05-05 07:39 | -34.10868 | 151.18609 | 6757 ft | 266 kts | 213° |
| 2026-05-05 07:39 | -34.12389 | 151.17323 | 7549 ft | 268 kts | 217° |
| 2026-05-05 07:40 | -34.13904 | 151.15996 | 8385 ft | 270 kts | 217° |
| 2026-05-05 07:40 | -34.15435 | 151.14650 | 9189 ft | 274 kts | 218° |
| 2026-05-05 07:40 | -34.16982 | 151.13291 | 10004 ft | 276 kts | 218° |
| 2026-05-05 07:40 | -34.18554 | 151.11911 | 10457 ft | 292 kts | 218° |
| 2026-05-05 07:41 | -34.20255 | 151.10415 | 10662 ft | 313 kts | 218° |
| 2026-05-05 07:41 | -34.22041 | 151.08843 | 11193 ft | 321 kts | 218° |
| 2026-05-05 07:41 | -34.23857 | 151.07248 | 11859 ft | 325 kts | 218° |
| 2026-05-05 07:41 | -34.25698 | 151.05635 | 12546 ft | 328 kts | 218° |
| 2026-05-05 07:42 | -34.27553 | 151.04009 | 13238 ft | 331 kts | 218° |
| 2026-05-05 07:42 | -34.29423 | 151.02367 | 13906 ft | 334 kts | 217° |
| 2026-05-05 07:42 | -34.31308 | 151.00708 | 14505 ft | 336 kts | 218° |
| 2026-05-05 07:42 | -34.33209 | 150.99033 | 15084 ft | 339 kts | 218° |
| 2026-05-05 07:43 | -34.35124 | 150.97346 | 15651 ft | 342 kts | 218° |
| 2026-05-05 07:43 | -34.37061 | 150.95645 | 16206 ft | 346 kts | 218° |
| 2026-05-05 07:43 | -34.39015 | 150.93927 | 16764 ft | 349 kts | 218° |
| 2026-05-05 07:43 | -34.40986 | 150.92188 | 17319 ft | 352 kts | 218° |
| 2026-05-05 07:44 | -34.42973 | 150.90432 | 17870 ft | 355 kts | 218° |
| 2026-05-05 07:44 | -34.44985 | 150.88653 | 18423 ft | 359 kts | 219° |
| 2026-05-05 07:44 | -34.47012 | 150.86867 | 18907 ft | 362 kts | 219° |
| 2026-05-05 07:44 | -34.49058 | 150.85060 | 19402 ft | 366 kts | 219° |
| 2026-05-05 07:45 | -34.51123 | 150.83236 | 19927 ft | 368 kts | 219° |
| 2026-05-05 07:45 | -34.53201 | 150.81402 | 20426 ft | 371 kts | 219° |
| 2026-05-05 07:45 | -34.55221 | 150.79506 | 20891 ft | 372 kts | 225° |
| 2026-05-05 07:45 | -34.56959 | 150.77190 | 21336 ft | 372 kts | 236° |
| 2026-05-05 07:46 | -34.58490 | 150.74634 | 21794 ft | 375 kts | 236° |
| 2026-05-05 07:46 | -34.60035 | 150.72065 | 22249 ft | 378 kts | 236° |
| 2026-05-05 07:46 | -34.61591 | 150.69484 | 22698 ft | 381 kts | 236° |
| 2026-05-05 07:46 | -34.63165 | 150.66880 | 23143 ft | 384 kts | 236° |
| 2026-05-05 07:47 | -34.64752 | 150.64250 | 23566 ft | 387 kts | 236° |
| 2026-05-05 07:47 | -34.66348 | 150.61598 | 23962 ft | 390 kts | 236° |
| 2026-05-05 07:47 | -34.67955 | 150.58927 | 24353 ft | 392 kts | 236° |
| 2026-05-05 07:47 | -34.69574 | 150.56235 | 24738 ft | 395 kts | 237° |
| 2026-05-05 07:48 | -34.71197 | 150.53533 | 25123 ft | 397 kts | 237° |
| 2026-05-05 07:48 | -34.72815 | 150.50839 | 25503 ft | 399 kts | 237° |
| 2026-05-05 07:48 | -34.74451 | 150.48107 | 25872 ft | 401 kts | 237° |
| 2026-05-05 07:48 | -34.76073 | 150.45397 | 26245 ft | 403 kts | 237° |
| 2026-05-05 07:49 | -34.77725 | 150.42639 | 26632 ft | 404 kts | 237° |
| 2026-05-05 07:49 | -34.79384 | 150.39869 | 26995 ft | 406 kts | 237° |
| 2026-05-05 07:49 | -34.81053 | 150.37078 | 27354 ft | 408 kts | 237° |
| 2026-05-05 07:49 | -34.82724 | 150.34274 | 27752 ft | 409 kts | 237° |
| 2026-05-05 07:50 | -34.84399 | 150.31462 | 28101 ft | 411 kts | 238° |
| 2026-05-05 07:50 | -34.86082 | 150.28634 | 28462 ft | 413 kts | 238° |
| 2026-05-05 07:50 | -34.87779 | 150.25781 | 28829 ft | 415 kts | 238° |
| 2026-05-05 07:50 | -34.89477 | 150.22929 | 29173 ft | 418 kts | 238° |
| 2026-05-05 07:51 | -34.91186 | 150.20059 | 29517 ft | 420 kts | 238° |
| 2026-05-05 07:51 | -34.92903 | 150.17178 | 29872 ft | 422 kts | 238° |
| 2026-05-05 07:51 | -34.94633 | 150.14272 | 30203 ft | 424 kts | 238° |
| 2026-05-05 07:51 | -34.96369 | 150.11346 | 30491 ft | 427 kts | 238° |
| 2026-05-05 07:52 | -34.98085 | 150.08448 | 30858 ft | 427 kts | 238° |
| 2026-05-05 07:52 | -34.99818 | 150.05522 | 31297 ft | 425 kts | 238° |
| 2026-05-05 07:52 | -35.01547 | 150.02603 | 31717 ft | 424 kts | 238° |
| 2026-05-05 07:52 | -35.03271 | 149.99686 | 32098 ft | 423 kts | 239° |
| 2026-05-05 07:53 | -35.04998 | 149.96763 | 32506 ft | 422 kts | 239° |
| 2026-05-05 07:53 | -35.06712 | 149.93855 | 32914 ft | 422 kts | 239° |
| 2026-05-05 07:53 | -35.08423 | 149.90951 | 33315 ft | 421 kts | 239° |
| 2026-05-05 07:53 | -35.10133 | 149.88050 | 33718 ft | 421 kts | 239° |
| 2026-05-05 07:54 | -35.11842 | 149.85151 | 34101 ft | 420 kts | 239° |
| 2026-05-05 07:54 | -35.13550 | 149.82250 | 34444 ft | 420 kts | 239° |
| 2026-05-05 07:54 | -35.15256 | 149.79347 | 34741 ft | 420 kts | 239° |
| 2026-05-05 07:54 | -35.16963 | 149.76437 | 35056 ft | 420 kts | 239° |
| 2026-05-05 07:55 | -35.18640 | 149.73580 | 35361 ft | 419 kts | 239° |
| 2026-05-05 07:55 | -35.20336 | 149.70694 | 35676 ft | 418 kts | 239° |
| 2026-05-05 07:55 | -35.22027 | 149.67811 | 35984 ft | 417 kts | 239° |
| 2026-05-05 07:55 | -35.23721 | 149.64921 | 36175 ft | 418 kts | 239° |
| 2026-05-05 07:56 | -35.27108 | 149.59118 | 36225 ft | 419 kts | 239° |
| 2026-05-05 07:56 | -35.30490 | 149.53312 | 36208 ft | 419 kts | 239° |
| 2026-05-05 07:57 | -35.33876 | 149.47503 | 36210 ft | 419 kts | 239° |
| 2026-05-05 07:57 | -35.37252 | 149.41714 | 36198 ft | 419 kts | 239° |
| 2026-05-05 07:58 | -35.40641 | 149.35870 | 36209 ft | 419 kts | 239° |
| 2026-05-05 07:58 | -35.44021 | 149.30035 | 36223 ft | 419 kts | 239° |
| 2026-05-05 07:59 | -35.46827 | 149.25191 | 36219 ft | 419 kts | 239° |
| 2026-05-05 07:59 | -35.50762 | 149.18388 | 36228 ft | 419 kts | 239° |
| 2026-05-05 08:00 | -35.54117 | 149.12582 | 36219 ft | 419 kts | 239° |
| 2026-05-05 08:00 | -35.56938 | 149.07693 | 36231 ft | 419 kts | 239° |
| 2026-05-05 08:01 | -35.60273 | 149.01898 | 36230 ft | 418 kts | 239° |
| 2026-05-05 08:01 | -35.63627 | 148.96055 | 36227 ft | 417 kts | 239° |
| 2026-05-05 08:02 | -35.66987 | 148.90170 | 36204 ft | 427 kts | 239° |
| 2026-05-05 08:02 | -35.70443 | 148.84114 | 36207 ft | 435 kts | 239° |
| 2026-05-05 08:03 | -35.73932 | 148.78023 | 36207 ft | 435 kts | 239° |
| 2026-05-05 08:03 | -35.77413 | 148.71933 | 36206 ft | 435 kts | 239° |
| 2026-05-05 08:04 | -35.80884 | 148.65838 | 36222 ft | 435 kts | 239° |
| 2026-05-05 08:04 | -35.84350 | 148.59733 | 36220 ft | 435 kts | 239° |
| 2026-05-05 08:05 | -35.87820 | 148.53614 | 36251 ft | 435 kts | 239° |
| 2026-05-05 08:05 | -35.91278 | 148.47498 | 36250 ft | 434 kts | 239° |
| 2026-05-05 08:06 | -35.94731 | 148.41366 | 36232 ft | 437 kts | 239° |
| 2026-05-05 08:06 | -35.98206 | 148.35183 | 36241 ft | 439 kts | 239° |
| 2026-05-05 08:07 | -36.01682 | 148.28996 | 36235 ft | 438 kts | 239° |
| 2026-05-05 08:07 | -36.05151 | 148.22802 | 36241 ft | 438 kts | 239° |
| 2026-05-05 08:08 | -36.08589 | 148.16637 | 36241 ft | 438 kts | 239° |
| 2026-05-05 08:08 | -36.12042 | 148.10428 | 36240 ft | 439 kts | 239° |
| 2026-05-05 08:09 | -36.15517 | 148.04210 | 36240 ft | 439 kts | 238° |
| 2026-05-05 08:09 | -36.19002 | 147.98002 | 36237 ft | 439 kts | 238° |
| 2026-05-05 08:10 | -36.22474 | 147.91790 | 36234 ft | 439 kts | 238° |
| 2026-05-05 08:10 | -36.25943 | 147.85550 | 36239 ft | 439 kts | 239° |
| 2026-05-05 08:11 | -36.29396 | 147.79313 | 36250 ft | 439 kts | 238° |
| 2026-05-05 08:11 | -36.32860 | 147.73063 | 36246 ft | 440 kts | 238° |
| 2026-05-05 08:12 | -36.36322 | 147.66796 | 36246 ft | 440 kts | 238° |
| 2026-05-05 08:12 | -36.39778 | 147.60529 | 36243 ft | 440 kts | 238° |
| 2026-05-05 08:13 | -36.43235 | 147.54247 | 36255 ft | 441 kts | 238° |
| 2026-05-05 08:13 | -36.46684 | 147.47964 | 36249 ft | 441 kts | 238° |
| 2026-05-05 08:14 | -36.50119 | 147.41692 | 36245 ft | 441 kts | 238° |
| 2026-05-05 08:14 | -36.53577 | 147.35372 | 36238 ft | 441 kts | 238° |
| 2026-05-05 08:15 | -36.57029 | 147.29056 | 36253 ft | 442 kts | 238° |
| 2026-05-05 08:15 | -36.60480 | 147.22730 | 36253 ft | 442 kts | 238° |
| 2026-05-05 08:16 | -36.63932 | 147.16389 | 36255 ft | 442 kts | 238° |
| 2026-05-05 08:16 | -36.67379 | 147.10044 | 36258 ft | 439 kts | 238° |
| 2026-05-05 08:17 | -36.69061 | 147.06939 | 36238 ft | 426 kts | 238° |
| 2026-05-05 08:17 | -36.70700 | 147.03909 | 36243 ft | 418 kts | 238° |
| 2026-05-05 08:17 | -36.73928 | 146.97937 | 36238 ft | 414 kts | 238° |
| 2026-05-05 08:18 | -36.77076 | 146.92118 | 35952 ft | 402 kts | 238° |
| 2026-05-05 08:18 | -36.78640 | 146.89219 | 35383 ft | 403 kts | 238° |
| 2026-05-05 08:18 | -36.80201 | 146.86321 | 34981 ft | 400 kts | 237° |
| 2026-05-05 08:19 | -36.81751 | 146.83446 | 34540 ft | 398 kts | 237° |
| 2026-05-05 08:19 | -36.83290 | 146.80586 | 34097 ft | 396 kts | 237° |
| 2026-05-05 08:19 | -36.84754 | 146.77692 | 33607 ft | 393 kts | 241° |
| 2026-05-05 08:19 | -36.86056 | 146.74705 | 33125 ft | 391 kts | 242° |
| 2026-05-05 08:20 | -36.87318 | 146.71711 | 32641 ft | 389 kts | 242° |
| 2026-05-05 08:20 | -36.88556 | 146.68722 | 32176 ft | 387 kts | 242° |
| 2026-05-05 08:20 | -36.89781 | 146.65738 | 31658 ft | 386 kts | 242° |
| 2026-05-05 08:20 | -36.91016 | 146.62732 | 30791 ft | 393 kts | 242° |
| 2026-05-05 08:21 | -36.92275 | 146.59672 | 29629 ft | 397 kts | 241° |
| 2026-05-05 08:21 | -36.93540 | 146.56609 | 28593 ft | 395 kts | 241° |
| 2026-05-05 08:21 | -36.94794 | 146.53582 | 27676 ft | 390 kts | 241° |
| 2026-05-05 08:21 | -36.96038 | 146.50584 | 26793 ft | 386 kts | 241° |
| 2026-05-05 08:22 | -36.97252 | 146.47655 | 25968 ft | 381 kts | 241° |
| 2026-05-05 08:22 | -36.98463 | 146.44728 | 25167 ft | 377 kts | 241° |
| 2026-05-05 08:22 | -36.99665 | 146.41829 | 24403 ft | 373 kts | 241° |
| 2026-05-05 08:22 | -37.00854 | 146.38960 | 23620 ft | 370 kts | 241° |
| 2026-05-05 08:23 | -37.02032 | 146.36115 | 22733 ft | 366 kts | 241° |
| 2026-05-05 08:23 | -37.03188 | 146.33318 | 21889 ft | 361 kts | 241° |
| 2026-05-05 08:23 | -37.04330 | 146.30541 | 21081 ft | 356 kts | 242° |
| 2026-05-05 08:23 | -37.05454 | 146.27801 | 20290 ft | 352 kts | 242° |
| 2026-05-05 08:24 | -37.06564 | 146.25094 | 19515 ft | 348 kts | 242° |
| 2026-05-05 08:24 | -37.07664 | 146.22418 | 18759 ft | 344 kts | 242° |
| 2026-05-05 08:24 | -37.08754 | 146.19771 | 17942 ft | 340 kts | 242° |
| 2026-05-05 08:24 | -37.09832 | 146.17151 | 17122 ft | 336 kts | 242° |
| 2026-05-05 08:25 | -37.10894 | 146.14566 | 16336 ft | 331 kts | 242° |
| 2026-05-05 08:25 | -37.11940 | 146.12014 | 15579 ft | 327 kts | 241° |
| 2026-05-05 08:25 | -37.12970 | 146.09495 | 14847 ft | 323 kts | 241° |
| 2026-05-05 08:25 | -37.13988 | 146.07000 | 14145 ft | 319 kts | 241° |
| 2026-05-05 08:26 | -37.14992 | 146.04534 | 13370 ft | 316 kts | 241° |
| 2026-05-05 08:26 | -37.15986 | 146.02100 | 12593 ft | 313 kts | 241° |
| 2026-05-05 08:26 | -37.16975 | 145.99682 | 11852 ft | 310 kts | 241° |
| 2026-05-05 08:26 | -37.17951 | 145.97293 | 11140 ft | 306 kts | 241° |
| 2026-05-05 08:27 | -37.18915 | 145.94929 | 10444 ft | 303 kts | 241° |
| 2026-05-05 08:27 | -37.19856 | 145.92617 | 10094 ft | 289 kts | 241° |
| 2026-05-05 08:27 | -37.20733 | 145.90452 | 9995 ft | 267 kts | 241° |
| 2026-05-05 08:27 | -37.21535 | 145.88465 | 10000 ft | 245 kts | 241° |
| 2026-05-05 08:28 | -37.22311 | 145.86552 | 10013 ft | 260 kts | 240° |
| 2026-05-05 08:28 | -37.23166 | 145.84463 | 10010 ft | 274 kts | 241° |
| 2026-05-05 08:28 | -37.24039 | 145.82319 | 10008 ft | 277 kts | 241° |
| 2026-05-05 08:28 | -37.24916 | 145.80161 | 10008 ft | 277 kts | 241° |
| 2026-05-05 08:29 | -37.25793 | 145.78002 | 10003 ft | 278 kts | 241° |
| 2026-05-05 08:29 | -37.26655 | 145.75873 | 10005 ft | 277 kts | 242° |
| 2026-05-05 08:29 | -37.27527 | 145.73709 | 10006 ft | 277 kts | 242° |
| 2026-05-05 08:30 | -37.29263 | 145.69397 | 10008 ft | 277 kts | 242° |
| 2026-05-05 08:30 | -37.30115 | 145.67221 | 10010 ft | 277 kts | 246° |
| 2026-05-05 08:30 | -37.30661 | 145.64896 | 10015 ft | 279 kts | 254° |
| 2026-05-05 08:30 | -37.31121 | 145.62530 | 10015 ft | 278 kts | 254° |
| 2026-05-05 08:31 | -37.31582 | 145.60165 | 10012 ft | 279 kts | 254° |
| 2026-05-05 08:31 | -37.32041 | 145.57804 | 10012 ft | 279 kts | 254° |
| 2026-05-05 08:31 | -37.32501 | 145.55433 | 10009 ft | 279 kts | 254° |
| 2026-05-05 08:31 | -37.32960 | 145.53067 | 10010 ft | 279 kts | 254° |
| 2026-05-05 08:32 | -37.33416 | 145.50700 | 10012 ft | 279 kts | 254° |
| 2026-05-05 08:32 | -37.33868 | 145.48357 | 10009 ft | 279 kts | 254° |
| 2026-05-05 08:32 | -37.34332 | 145.45959 | 10013 ft | 279 kts | 254° |
| 2026-05-05 08:32 | -37.34780 | 145.43634 | 9901 ft | 275 kts | 254° |
| 2026-05-05 08:33 | -37.35221 | 145.41334 | 9754 ft | 266 kts | 255° |
| 2026-05-05 08:33 | -37.35646 | 145.39110 | 9633 ft | 259 kts | 254° |
| 2026-05-05 08:33 | -37.36080 | 145.36853 | 9506 ft | 272 kts | 255° |
| 2026-05-05 08:33 | -37.36527 | 145.34529 | 9364 ft | 275 kts | 255° |
| 2026-05-05 08:34 | -37.36977 | 145.32186 | 9247 ft | 275 kts | 255° |
| 2026-05-05 08:34 | -37.37425 | 145.29849 | 9126 ft | 275 kts | 255° |
| 2026-05-05 08:34 | -37.37870 | 145.27525 | 8986 ft | 274 kts | 255° |
| 2026-05-05 08:34 | -37.38316 | 145.25191 | 8864 ft | 274 kts | 255° |
| 2026-05-05 08:35 | -37.38761 | 145.22853 | 8734 ft | 274 kts | 255° |
| 2026-05-05 08:35 | -37.39203 | 145.20529 | 8604 ft | 273 kts | 255° |
| 2026-05-05 08:35 | -37.39642 | 145.18210 | 8478 ft | 273 kts | 255° |
| 2026-05-05 08:35 | -37.40083 | 145.15896 | 8352 ft | 272 kts | 255° |
| 2026-05-05 08:36 | -37.40522 | 145.13584 | 8216 ft | 271 kts | 256° |
| 2026-05-05 08:36 | -37.40955 | 145.11296 | 7939 ft | 268 kts | 256° |
| 2026-05-05 08:36 | -37.41386 | 145.09017 | 7608 ft | 268 kts | 256° |
| 2026-05-05 08:36 | -37.41816 | 145.06739 | 7282 ft | 268 kts | 256° |
| 2026-05-05 08:37 | -37.42232 | 145.04538 | 7106 ft | 254 kts | 256° |
| 2026-05-05 08:37 | -37.42635 | 145.02401 | 6796 ft | 250 kts | 256° |
| 2026-05-05 08:37 | -37.43032 | 145.00306 | 6660 ft | 242 kts | 256° |
| 2026-05-05 08:37 | -37.43414 | 144.98286 | 6535 ft | 233 kts | 256° |
| 2026-05-05 08:38 | -37.43786 | 144.96318 | 6293 ft | 230 kts | 256° |
| 2026-05-05 08:38 | -37.44153 | 144.94374 | 5993 ft | 226 kts | 256° |
| 2026-05-05 08:38 | -37.44470 | 144.92444 | 5487 ft | 227 kts | 259° |
| 2026-05-05 08:38 | -37.44748 | 144.90481 | 5011 ft | 227 kts | 259° |
| 2026-05-05 08:39 | -37.45015 | 144.88524 | 4488 ft | 227 kts | 259° |
| 2026-05-05 08:39 | -37.45283 | 144.86570 | 3973 ft | 227 kts | 259° |
| 2026-05-05 08:39 | -37.45599 | 144.84626 | 3466 ft | 226 kts | 250° |
| 2026-05-05 08:39 | -37.46331 | 144.82895 | 3046 ft | 221 kts | 230° |
| 2026-05-05 08:40 | -37.47417 | 144.81663 | 2996 ft | 200 kts | 212° |
| 2026-05-05 08:40 | -37.48606 | 144.80969 | 3030 ft | 179 kts | 197° |
| 2026-05-05 08:40 | -37.49731 | 144.80719 | 3012 ft | 151 kts | 185° |
| 2026-05-05 08:40 | -37.50741 | 144.80777 | 3010 ft | 144 kts | 173° |
| 2026-05-05 08:41 | -37.51726 | 144.80960 | 3004 ft | 143 kts | 173° |
| 2026-05-05 08:41 | -37.52710 | 144.81143 | 2919 ft | 143 kts | 173° |
| 2026-05-05 08:41 | -37.53693 | 144.81326 | 2777 ft | 143 kts | 174° |
| 2026-05-05 08:41 | -37.54665 | 144.81506 | 2582 ft | 143 kts | 174° |
| 2026-05-05 08:42 | -37.55649 | 144.81690 | 2409 ft | 143 kts | 173° |
| 2026-05-05 08:42 | -37.56630 | 144.81872 | 2216 ft | 142 kts | 174° |
| 2026-05-05 08:42 | -37.57609 | 144.82054 | 2027 ft | 142 kts | 173° |
| 2026-05-05 08:42 | -37.58585 | 144.82236 | 1828 ft | 142 kts | 173° |
| 2026-05-05 08:43 | -37.59559 | 144.82418 | 1638 ft | 142 kts | 173° |
| 2026-05-05 08:43 | -37.60535 | 144.82599 | 1438 ft | 142 kts | 173° |
| 2026-05-05 08:43 | -37.61515 | 144.82782 | 1238 ft | 143 kts | 173° |
| 2026-05-05 08:43 | -37.62501 | 144.82966 | 1041 ft | 143 kts | 173° |
| 2026-05-05 08:44 | -37.63488 | 144.83150 | 839 ft | 144 kts | 173° |
| 2026-05-05 08:44 | -37.64482 | 144.83335 | 657 ft | 145 kts | 173° |
| 2026-05-05 08:44 | -37.65464 | 144.83519 | 457 ft | 145 kts | 172° |
| 2026-05-05 08:44 | -37.66352 | 144.83681 | 396 ft | 100 kts | 172° |
| 2026-05-05 08:45 | -37.66854 | 144.83771 | 386 ft | 34 kts | 171° |
| 2026-05-05 08:45 | -37.67063 | 144.83880 | 380 ft | 31 kts | 148° |
| 2026-05-05 08:45 | -37.67148 | 144.83965 | 375 ft | 0 kts | 139° |
| 2026-05-05 08:46 | -37.67150 | 144.83968 | 375 ft | 2 kts | 139° |
| 2026-05-05 08:46 | -37.67180 | 144.84000 | 373 ft | 9 kts | 139° |
| 2026-05-05 08:46 | -37.67243 | 144.84062 | 370 ft | 14 kts | 152° |
| 2026-05-05 08:46 | -37.67354 | 144.84084 | 366 ft | 18 kts | 172° |
| 2026-05-05 08:47 | -37.67483 | 144.84130 | 366 ft | 17 kts | 135° |
| 2026-05-05 08:47 | -37.67487 | 144.84288 | 360 ft | 20 kts | 82° |
| 2026-05-05 08:47 | -37.67467 | 144.84457 | 363 ft | 19 kts | 82° |
| 2026-05-05 08:47 | -37.67449 | 144.84622 | 355 ft | 19 kts | 82° |
| 2026-05-05 08:48 | -37.67455 | 144.84725 | 360 ft | 11 kts | 133° |
| 2026-05-05 08:48 | -37.67521 | 144.84740 | 361 ft | 9 kts | 172° |
| 2026-05-05 08:48 | -37.67533 | 144.84742 | 358 ft | 0 kts | 172° |